sensor_id;sensor_type;location;lat;lon;timestamp;temperature;humidity
13572;DHT22;6857;53.484;10.216;2022-07-15T00:01:05;14.20;99.90
13572;DHT22;6857;53.484;10.216;2022-07-15T00:03:31;14.20;99.90
13572;DHT22;6857;53.484;10.216;2022-07-15T00:05:57;14.20;99.90
13572;DHT22;6857;53.484;10.216;2022-07-15T00:08:22;14.20;99.90
13572;DHT22;6857;53.484;10.216;2022-07-15T00:10:48;14.20;99.90
13572;DHT22;6857;53.484;10.216;2022-07-15T00:13:14;14.20;99.90
13572;DHT22;6857;53.484;10.216;2022-07-15T00:15:39;14.10;99.90
13572;DHT22;6857;53.484;10.216;2022-07-15T00:18:05;14.10;99.90
13572;DHT22;6857;53.484;10.216;2022-07-15T00:20:31;14.10;99.90
13572;DHT22;6857;53.484;10.216;2022-07-15T00:23:03;14.10;99.90
13572;DHT22;6857;53.484;10.216;2022-07-15T00:25:29;14.20;99.90
13572;DHT22;6857;53.484;10.216;2022-07-15T00:27:57;14.20;99.90
13572;DHT22;6857;53.484;10.216;2022-07-15T00:30:27;14.20;99.90
13572;DHT22;6857;53.484;10.216;2022-07-15T00:32:53;14.30;99.90
13572;DHT22;6857;53.484;10.216;2022-07-15T00:35:18;14.20;99.90
13572;DHT22;6857;53.484;10.216;2022-07-15T00:37:44;14.20;99.90
13572;DHT22;6857;53.484;10.216;2022-07-15T00:40:10;14.20;99.90
13572;DHT22;6857;53.484;10.216;2022-07-15T00:42:37;14.30;99.90
13572;DHT22;6857;53.484;10.216;2022-07-15T00:45:19;14.30;99.90
13572;DHT22;6857;53.484;10.216;2022-07-15T00:47:53;14.40;99.90
13572;DHT22;6857;53.484;10.216;2022-07-15T00:50:20;14.30;99.90
13572;DHT22;6857;53.484;10.216;2022-07-15T00:52:57;14.40;99.90
13572;DHT22;6857;53.484;10.216;2022-07-15T00:55:24;14.30;99.90
13572;DHT22;6857;53.484;10.216;2022-07-15T00:57:51;14.20;99.90
13572;DHT22;6857;53.484;10.216;2022-07-15T01:00:20;14.10;99.90
13572;DHT22;6857;53.484;10.216;2022-07-15T01:02:46;14.10;99.90
13572;DHT22;6857;53.484;10.216;2022-07-15T01:05:21;14.10;99.90
13572;DHT22;6857;53.484;10.216;2022-07-15T01:07:48;14.20;99.90
13572;DHT22;6857;53.484;10.216;2022-07-15T01:10:18;14.20;99.90
13572;DHT22;6857;53.484;10.216;2022-07-15T01:12:47;14.20;99.90
13572;DHT22;6857;53.484;10.216;2022-07-15T01:15:13;14.30;99.90
13572;DHT22;6857;53.484;10.216;2022-07-15T01:17:39;14.30;99.90
13572;DHT22;6857;53.484;10.216;2022-07-15T01:20:05;14.30;99.90
13572;DHT22;6857;53.484;10.216;2022-07-15T01:22:31;14.30;99.90
13572;DHT22;6857;53.484;10.216;2022-07-15T01:24:57;14.30;99.90
13572;DHT22;6857;53.484;10.216;2022-07-15T01:27:24;14.30;99.90
13572;DHT22;6857;53.484;10.216;2022-07-15T01:29:50;14.30;99.90
13572;DHT22;6857;53.484;10.216;2022-07-15T01:32:16;14.40;99.90
13572;DHT22;6857;53.484;10.216;2022-07-15T01:34:41;14.30;99.90
13572;DHT22;6857;53.484;10.216;2022-07-15T01:37:07;14.30;99.90
13572;DHT22;6857;53.484;10.216;2022-07-15T01:39:33;14.40;99.90
13572;DHT22;6857;53.484;10.216;2022-07-15T01:41:58;14.40;99.90
13572;DHT22;6857;53.484;10.216;2022-07-15T01:44:24;14.40;99.90
13572;DHT22;6857;53.484;10.216;2022-07-15T01:46:49;14.40;99.90
13572;DHT22;6857;53.484;10.216;2022-07-15T01:49:15;14.30;99.90
13572;DHT22;6857;53.484;10.216;2022-07-15T01:51:57;14.30;99.90
13572;DHT22;6857;53.484;10.216;2022-07-15T01:54:24;14.30;99.90
13572;DHT22;6857;53.484;10.216;2022-07-15T01:56:51;14.30;99.90
13572;DHT22;6857;53.484;10.216;2022-07-15T01:59:17;14.30;99.90
13572;DHT22;6857;53.484;10.216;2022-07-15T02:01:44;14.30;99.90
13572;DHT22;6857;53.484;10.216;2022-07-15T02:04:10;14.20;99.90
13572;DHT22;6857;53.484;10.216;2022-07-15T02:06:36;14.20;99.90
13572;DHT22;6857;53.484;10.216;2022-07-15T02:09:02;14.20;99.90
13572;DHT22;6857;53.484;10.216;2022-07-15T02:11:28;14.20;99.90
13572;DHT22;6857;53.484;10.216;2022-07-15T02:13:53;14.20;99.90
13572;DHT22;6857;53.484;10.216;2022-07-15T02:16:23;14.20;99.90
13572;DHT22;6857;53.484;10.216;2022-07-15T02:18:49;14.20;99.90
13572;DHT22;6857;53.484;10.216;2022-07-15T02:21:15;14.20;99.90
13572;DHT22;6857;53.484;10.216;2022-07-15T02:23:40;14.30;99.90
13572;DHT22;6857;53.484;10.216;2022-07-15T02:26:06;14.30;99.90
13572;DHT22;6857;53.484;10.216;2022-07-15T02:28:32;14.30;99.90
13572;DHT22;6857;53.484;10.216;2022-07-15T02:30:57;14.30;99.90
13572;DHT22;6857;53.484;10.216;2022-07-15T02:33:23;14.20;99.90
13572;DHT22;6857;53.484;10.216;2022-07-15T02:35:49;14.00;99.90
13572;DHT22;6857;53.484;10.216;2022-07-15T02:38:15;13.80;99.90
13572;DHT22;6857;53.484;10.216;2022-07-15T02:40:40;13.60;99.90
13572;DHT22;6857;53.484;10.216;2022-07-15T02:43:06;13.50;99.90
13572;DHT22;6857;53.484;10.216;2022-07-15T02:45:34;13.40;99.90
13572;DHT22;6857;53.484;10.216;2022-07-15T02:48:00;13.40;99.90
13572;DHT22;6857;53.484;10.216;2022-07-15T02:50:26;13.40;99.90
13572;DHT22;6857;53.484;10.216;2022-07-15T02:52:51;13.40;99.90
13572;DHT22;6857;53.484;10.216;2022-07-15T02:55:17;13.40;99.90
13572;DHT22;6857;53.484;10.216;2022-07-15T02:57:43;13.40;99.90
13572;DHT22;6857;53.484;10.216;2022-07-15T03:00:12;13.50;99.90
13572;DHT22;6857;53.484;10.216;2022-07-15T03:02:38;13.50;99.90
13572;DHT22;6857;53.484;10.216;2022-07-15T03:05:05;13.50;99.90
13572;DHT22;6857;53.484;10.216;2022-07-15T03:07:31;13.60;99.90
13572;DHT22;6857;53.484;10.216;2022-07-15T03:09:57;13.70;99.90
13572;DHT22;6857;53.484;10.216;2022-07-15T03:12:23;13.80;99.90
13572;DHT22;6857;53.484;10.216;2022-07-15T03:14:49;13.80;99.90
13572;DHT22;6857;53.484;10.216;2022-07-15T03:17:14;13.90;99.90
13572;DHT22;6857;53.484;10.216;2022-07-15T03:19:40;14.00;99.90
13572;DHT22;6857;53.484;10.216;2022-07-15T03:22:06;14.00;99.90
13572;DHT22;6857;53.484;10.216;2022-07-15T03:24:32;14.00;99.90
13572;DHT22;6857;53.484;10.216;2022-07-15T03:26:58;14.10;99.90
13572;DHT22;6857;53.484;10.216;2022-07-15T03:29:24;14.10;99.90
13572;DHT22;6857;53.484;10.216;2022-07-15T03:31:50;14.00;99.90
13572;DHT22;6857;53.484;10.216;2022-07-15T03:34:16;14.00;99.90
13572;DHT22;6857;53.484;10.216;2022-07-15T03:36:41;14.00;99.90
13572;DHT22;6857;53.484;10.216;2022-07-15T03:39:07;14.00;99.90
13572;DHT22;6857;53.484;10.216;2022-07-15T03:41:33;14.00;99.90
13572;DHT22;6857;53.484;10.216;2022-07-15T03:44:00;13.90;99.90
13572;DHT22;6857;53.484;10.216;2022-07-15T03:46:27;14.00;99.90
13572;DHT22;6857;53.484;10.216;2022-07-15T03:48:53;14.00;99.90
13572;DHT22;6857;53.484;10.216;2022-07-15T03:51:19;14.00;99.90
13572;DHT22;6857;53.484;10.216;2022-07-15T03:53:44;13.90;99.90
13572;DHT22;6857;53.484;10.216;2022-07-15T03:56:11;13.90;99.90
13572;DHT22;6857;53.484;10.216;2022-07-15T03:58:37;14.00;99.90
13572;DHT22;6857;53.484;10.216;2022-07-15T04:01:02;13.90;99.90
13572;DHT22;6857;53.484;10.216;2022-07-15T04:03:29;13.90;99.90
13572;DHT22;6857;53.484;10.216;2022-07-15T04:05:55;13.90;99.90
13572;DHT22;6857;53.484;10.216;2022-07-15T04:08:20;13.90;99.90
13572;DHT22;6857;53.484;10.216;2022-07-15T04:10:46;14.00;99.90
13572;DHT22;6857;53.484;10.216;2022-07-15T04:13:11;14.00;99.90
13572;DHT22;6857;53.484;10.216;2022-07-15T04:15:37;13.90;99.90
13572;DHT22;6857;53.484;10.216;2022-07-15T04:18:03;14.10;99.90
13572;DHT22;6857;53.484;10.216;2022-07-15T04:20:28;14.10;99.90
13572;DHT22;6857;53.484;10.216;2022-07-15T04:22:54;14.10;99.90
13572;DHT22;6857;53.484;10.216;2022-07-15T04:25:21;14.20;99.90
13572;DHT22;6857;53.484;10.216;2022-07-15T04:27:47;14.20;99.90
13572;DHT22;6857;53.484;10.216;2022-07-15T04:30:14;14.20;99.90
13572;DHT22;6857;53.484;10.216;2022-07-15T04:32:41;14.20;99.90
13572;DHT22;6857;53.484;10.216;2022-07-15T04:35:07;14.30;99.90
13572;DHT22;6857;53.484;10.216;2022-07-15T04:37:33;14.30;99.90
13572;DHT22;6857;53.484;10.216;2022-07-15T04:39:58;14.40;99.90
13572;DHT22;6857;53.484;10.216;2022-07-15T04:42:24;14.40;99.90
13572;DHT22;6857;53.484;10.216;2022-07-15T04:44:50;14.40;99.90
13572;DHT22;6857;53.484;10.216;2022-07-15T04:47:16;14.40;99.90
13572;DHT22;6857;53.484;10.216;2022-07-15T04:49:41;14.40;99.90
13572;DHT22;6857;53.484;10.216;2022-07-15T04:52:25;14.50;99.90
13572;DHT22;6857;53.484;10.216;2022-07-15T04:54:52;14.50;99.90
13572;DHT22;6857;53.484;10.216;2022-07-15T04:57:18;14.50;99.90
13572;DHT22;6857;53.484;10.216;2022-07-15T04:59:43;14.60;99.90
13572;DHT22;6857;53.484;10.216;2022-07-15T05:02:09;14.50;99.90
13572;DHT22;6857;53.484;10.216;2022-07-15T05:04:34;14.50;99.90
13572;DHT22;6857;53.484;10.216;2022-07-15T05:07:00;14.40;99.90
13572;DHT22;6857;53.484;10.216;2022-07-15T05:09:26;14.40;99.90
13572;DHT22;6857;53.484;10.216;2022-07-15T05:11:52;14.40;99.90
13572;DHT22;6857;53.484;10.216;2022-07-15T05:14:17;14.40;99.90
13572;DHT22;6857;53.484;10.216;2022-07-15T05:16:43;14.40;99.90
13572;DHT22;6857;53.484;10.216;2022-07-15T05:19:09;14.50;99.90
13572;DHT22;6857;53.484;10.216;2022-07-15T05:21:34;14.50;99.90
13572;DHT22;6857;53.484;10.216;2022-07-15T05:24:00;14.50;99.90
13572;DHT22;6857;53.484;10.216;2022-07-15T05:26:25;14.60;99.90
13572;DHT22;6857;53.484;10.216;2022-07-15T05:28:51;14.60;99.90
13572;DHT22;6857;53.484;10.216;2022-07-15T05:31:17;14.80;99.90
13572;DHT22;6857;53.484;10.216;2022-07-15T05:33:43;14.80;99.90
13572;DHT22;6857;53.484;10.216;2022-07-15T05:36:12;14.80;99.90
13572;DHT22;6857;53.484;10.216;2022-07-15T05:38:39;14.80;99.90
13572;DHT22;6857;53.484;10.216;2022-07-15T05:41:04;14.80;99.90
13572;DHT22;6857;53.484;10.216;2022-07-15T05:43:30;14.80;99.90
13572;DHT22;6857;53.484;10.216;2022-07-15T05:45:56;14.90;99.90
13572;DHT22;6857;53.484;10.216;2022-07-15T05:48:22;14.80;99.90
13572;DHT22;6857;53.484;10.216;2022-07-15T05:50:47;14.80;99.90
13572;DHT22;6857;53.484;10.216;2022-07-15T05:53:13;14.80;99.90
13572;DHT22;6857;53.484;10.216;2022-07-15T05:55:38;14.80;99.90
13572;DHT22;6857;53.484;10.216;2022-07-15T05:58:06;14.70;99.90
13572;DHT22;6857;53.484;10.216;2022-07-15T06:00:32;14.70;99.90
13572;DHT22;6857;53.484;10.216;2022-07-15T06:02:58;14.70;99.90
13572;DHT22;6857;53.484;10.216;2022-07-15T06:05:24;14.70;99.90
13572;DHT22;6857;53.484;10.216;2022-07-15T06:07:50;14.60;99.90
13572;DHT22;6857;53.484;10.216;2022-07-15T06:10:15;14.30;99.90
13572;DHT22;6857;53.484;10.216;2022-07-15T06:12:41;14.00;99.90
13572;DHT22;6857;53.484;10.216;2022-07-15T06:15:07;13.70;99.90
13572;DHT22;6857;53.484;10.216;2022-07-15T06:17:33;13.50;99.90
13572;DHT22;6857;53.484;10.216;2022-07-15T06:19:59;13.30;99.90
13572;DHT22;6857;53.484;10.216;2022-07-15T06:22:25;13.40;99.90
13572;DHT22;6857;53.484;10.216;2022-07-15T06:24:51;13.50;99.90
13572;DHT22;6857;53.484;10.216;2022-07-15T06:27:17;13.60;99.90
13572;DHT22;6857;53.484;10.216;2022-07-15T06:29:42;13.60;99.90
13572;DHT22;6857;53.484;10.216;2022-07-15T06:32:08;13.80;99.90
13572;DHT22;6857;53.484;10.216;2022-07-15T06:34:34;14.10;99.90
13572;DHT22;6857;53.484;10.216;2022-07-15T06:36:59;14.30;99.90
13572;DHT22;6857;53.484;10.216;2022-07-15T06:39:25;14.60;99.90
13572;DHT22;6857;53.484;10.216;2022-07-15T06:41:51;14.70;99.90
13572;DHT22;6857;53.484;10.216;2022-07-15T06:44:17;14.90;99.90
13572;DHT22;6857;53.484;10.216;2022-07-15T06:46:42;15.00;99.90
13572;DHT22;6857;53.484;10.216;2022-07-15T06:49:08;15.20;99.90
13572;DHT22;6857;53.484;10.216;2022-07-15T06:51:34;15.30;99.90
13572;DHT22;6857;53.484;10.216;2022-07-15T06:53:59;15.30;99.90
13572;DHT22;6857;53.484;10.216;2022-07-15T06:56:25;15.30;99.90
13572;DHT22;6857;53.484;10.216;2022-07-15T06:58:50;15.40;99.90
13572;DHT22;6857;53.484;10.216;2022-07-15T07:01:16;15.60;99.90
13572;DHT22;6857;53.484;10.216;2022-07-15T07:03:41;15.70;99.90
13572;DHT22;6857;53.484;10.216;2022-07-15T07:06:07;15.90;99.90
13572;DHT22;6857;53.484;10.216;2022-07-15T07:08:33;16.00;99.90
13572;DHT22;6857;53.484;10.216;2022-07-15T07:10:59;15.90;99.90
13572;DHT22;6857;53.484;10.216;2022-07-15T07:13:25;15.90;99.90
13572;DHT22;6857;53.484;10.216;2022-07-15T07:15:50;15.80;99.90
13572;DHT22;6857;53.484;10.216;2022-07-15T07:18:16;15.80;99.90
13572;DHT22;6857;53.484;10.216;2022-07-15T07:20:42;15.80;99.90
13572;DHT22;6857;53.484;10.216;2022-07-15T07:23:10;15.80;99.90
13572;DHT22;6857;53.484;10.216;2022-07-15T07:25:36;15.80;99.90
13572;DHT22;6857;53.484;10.216;2022-07-15T07:28:01;15.80;99.90
13572;DHT22;6857;53.484;10.216;2022-07-15T07:30:29;15.90;99.90
13572;DHT22;6857;53.484;10.216;2022-07-15T07:32:55;15.90;99.90
13572;DHT22;6857;53.484;10.216;2022-07-15T07:35:21;16.00;99.90
13572;DHT22;6857;53.484;10.216;2022-07-15T07:37:46;16.10;99.90
13572;DHT22;6857;53.484;10.216;2022-07-15T07:40:12;16.00;99.90
13572;DHT22;6857;53.484;10.216;2022-07-15T07:42:38;15.90;99.90
13572;DHT22;6857;53.484;10.216;2022-07-15T07:45:04;15.80;99.90
13572;DHT22;6857;53.484;10.216;2022-07-15T07:47:33;15.90;99.90
13572;DHT22;6857;53.484;10.216;2022-07-15T07:50:03;16.00;99.90
13572;DHT22;6857;53.484;10.216;2022-07-15T07:52:29;16.10;99.90
13572;DHT22;6857;53.484;10.216;2022-07-15T07:54:55;16.10;99.90
13572;DHT22;6857;53.484;10.216;2022-07-15T07:57:20;16.00;99.90
13572;DHT22;6857;53.484;10.216;2022-07-15T07:59:46;15.90;99.90
13572;DHT22;6857;53.484;10.216;2022-07-15T08:02:12;15.90;99.90
13572;DHT22;6857;53.484;10.216;2022-07-15T08:04:37;16.00;99.90
13572;DHT22;6857;53.484;10.216;2022-07-15T08:07:03;16.20;99.90
13572;DHT22;6857;53.484;10.216;2022-07-15T08:09:31;16.40;99.90
13572;DHT22;6857;53.484;10.216;2022-07-15T08:11:57;16.60;99.90
13572;DHT22;6857;53.484;10.216;2022-07-15T08:14:22;16.70;99.90
13572;DHT22;6857;53.484;10.216;2022-07-15T08:16:50;16.80;99.90
13572;DHT22;6857;53.484;10.216;2022-07-15T08:19:16;16.90;99.90
13572;DHT22;6857;53.484;10.216;2022-07-15T08:21:42;17.00;99.90
13572;DHT22;6857;53.484;10.216;2022-07-15T08:24:08;17.00;99.90
13572;DHT22;6857;53.484;10.216;2022-07-15T08:26:35;17.10;99.90
13572;DHT22;6857;53.484;10.216;2022-07-15T08:29:01;17.00;99.90
13572;DHT22;6857;53.484;10.216;2022-07-15T08:31:26;16.80;99.90
13572;DHT22;6857;53.484;10.216;2022-07-15T08:33:52;16.60;99.90
13572;DHT22;6857;53.484;10.216;2022-07-15T08:36:20;16.40;99.90
13572;DHT22;6857;53.484;10.216;2022-07-15T08:38:45;16.20;99.90
13572;DHT22;6857;53.484;10.216;2022-07-15T08:41:15;16.20;99.90
13572;DHT22;6857;53.484;10.216;2022-07-15T08:43:41;16.10;99.90
13572;DHT22;6857;53.484;10.216;2022-07-15T08:46:07;16.00;99.90
13572;DHT22;6857;53.484;10.216;2022-07-15T08:48:35;16.00;99.90
13572;DHT22;6857;53.484;10.216;2022-07-15T08:51:04;16.00;99.90
13572;DHT22;6857;53.484;10.216;2022-07-15T08:53:30;16.10;99.90
13572;DHT22;6857;53.484;10.216;2022-07-15T08:55:57;16.40;99.90
13572;DHT22;6857;53.484;10.216;2022-07-15T08:58:23;16.60;99.90
13572;DHT22;6857;53.484;10.216;2022-07-15T09:00:49;16.70;99.90
13572;DHT22;6857;53.484;10.216;2022-07-15T09:03:15;16.70;99.90
13572;DHT22;6857;53.484;10.216;2022-07-15T09:05:41;16.70;99.90
13572;DHT22;6857;53.484;10.216;2022-07-15T09:08:15;16.80;99.90
13572;DHT22;6857;53.484;10.216;2022-07-15T09:16:09;17.20;99.90
13572;DHT22;6857;53.484;10.216;2022-07-15T09:18:37;17.30;99.90
13572;DHT22;6857;53.484;10.216;2022-07-15T09:23:39;17.70;99.90
13572;DHT22;6857;53.484;10.216;2022-07-15T09:26:27;18.00;99.90
13572;DHT22;6857;53.484;10.216;2022-07-15T09:28:54;18.30;99.90
13572;DHT22;6857;53.484;10.216;2022-07-15T09:31:46;18.50;99.90
13572;DHT22;6857;53.484;10.216;2022-07-15T09:35:01;18.40;99.90
13572;DHT22;6857;53.484;10.216;2022-07-15T09:37:27;18.20;99.90
13572;DHT22;6857;53.484;10.216;2022-07-15T09:39:54;18.20;99.90
13572;DHT22;6857;53.484;10.216;2022-07-15T09:42:21;18.20;99.90
13572;DHT22;6857;53.484;10.216;2022-07-15T09:44:46;18.10;99.90
13572;DHT22;6857;53.484;10.216;2022-07-15T09:47:17;17.80;99.90
13572;DHT22;6857;53.484;10.216;2022-07-15T09:49:50;17.50;99.90
13572;DHT22;6857;53.484;10.216;2022-07-15T09:52:15;17.50;99.90
13572;DHT22;6857;53.484;10.216;2022-07-15T09:54:45;17.70;99.90
13572;DHT22;6857;53.484;10.216;2022-07-15T09:57:13;17.70;99.90
13572;DHT22;6857;53.484;10.216;2022-07-15T09:59:41;17.80;99.90
13572;DHT22;6857;53.484;10.216;2022-07-15T10:02:08;18.00;99.90
13572;DHT22;6857;53.484;10.216;2022-07-15T10:04:34;18.10;99.90
13572;DHT22;6857;53.484;10.216;2022-07-15T10:07:01;18.20;99.90
13572;DHT22;6857;53.484;10.216;2022-07-15T10:09:31;18.30;99.90
13572;DHT22;6857;53.484;10.216;2022-07-15T10:12:18;18.40;99.90
13572;DHT22;6857;53.484;10.216;2022-07-15T10:20:55;18.10;99.90
13572;DHT22;6857;53.484;10.216;2022-07-15T10:23:39;18.20;99.90
13572;DHT22;6857;53.484;10.216;2022-07-15T10:26:35;18.70;99.90
13572;DHT22;6857;53.484;10.216;2022-07-15T10:29:06;19.00;99.90
13572;DHT22;6857;53.484;10.216;2022-07-15T10:31:34;18.80;99.90
13572;DHT22;6857;53.484;10.216;2022-07-15T10:36:54;18.80;99.90
13572;DHT22;6857;53.484;10.216;2022-07-15T10:42:12;19.10;99.90
13572;DHT22;6857;53.484;10.216;2022-07-15T10:47:23;19.50;99.90
13572;DHT22;6857;53.484;10.216;2022-07-15T10:49:49;19.40;99.90
13572;DHT22;6857;53.484;10.216;2022-07-15T11:05:48;19.60;99.90
13572;DHT22;6857;53.484;10.216;2022-07-15T11:08:45;19.50;99.90
13572;DHT22;6857;53.484;10.216;2022-07-15T11:13:49;19.60;99.90
13572;DHT22;6857;53.484;10.216;2022-07-15T11:16:17;19.70;99.90
13572;DHT22;6857;53.484;10.216;2022-07-15T11:18:49;19.90;99.90
13572;DHT22;6857;53.484;10.216;2022-07-15T11:21:16;20.10;99.90
13572;DHT22;6857;53.484;10.216;2022-07-15T11:23:46;20.00;99.90
13572;DHT22;6857;53.484;10.216;2022-07-15T11:26:12;19.70;99.90
13572;DHT22;6857;53.484;10.216;2022-07-15T11:28:38;19.80;99.90
13572;DHT22;6857;53.484;10.216;2022-07-15T11:31:04;20.00;99.90
13572;DHT22;6857;53.484;10.216;2022-07-15T11:33:33;20.00;99.90
13572;DHT22;6857;53.484;10.216;2022-07-15T11:36:04;20.10;99.90
13572;DHT22;6857;53.484;10.216;2022-07-15T11:38:38;20.20;99.90
13572;DHT22;6857;53.484;10.216;2022-07-15T11:41:05;20.30;99.90
13572;DHT22;6857;53.484;10.216;2022-07-15T11:44:05;20.30;99.90
13572;DHT22;6857;53.484;10.216;2022-07-15T11:46:53;20.20;99.90
13572;DHT22;6857;53.484;10.216;2022-07-15T11:49:31;20.10;99.90
13572;DHT22;6857;53.484;10.216;2022-07-15T11:51:57;19.80;99.90
13572;DHT22;6857;53.484;10.216;2022-07-15T11:54:23;19.70;99.90
13572;DHT22;6857;53.484;10.216;2022-07-15T11:56:54;19.80;99.90
13572;DHT22;6857;53.484;10.216;2022-07-15T11:59:20;19.90;99.90
13572;DHT22;6857;53.484;10.216;2022-07-15T12:01:45;20.00;99.90
13572;DHT22;6857;53.484;10.216;2022-07-15T12:04:11;20.20;99.90
13572;DHT22;6857;53.484;10.216;2022-07-15T12:06:37;20.50;99.90
13572;DHT22;6857;53.484;10.216;2022-07-15T12:09:04;20.50;99.90
13572;DHT22;6857;53.484;10.216;2022-07-15T12:11:35;20.20;99.90
13572;DHT22;6857;53.484;10.216;2022-07-15T12:14:07;20.10;99.90
13572;DHT22;6857;53.484;10.216;2022-07-15T12:16:44;19.90;99.90
13572;DHT22;6857;53.484;10.216;2022-07-15T12:19:18;20.00;99.90
13572;DHT22;6857;53.484;10.216;2022-07-15T12:21:47;20.80;99.90
13572;DHT22;6857;53.484;10.216;2022-07-15T12:24:16;21.40;99.80
13572;DHT22;6857;53.484;10.216;2022-07-15T12:29:20;20.90;99.90
13572;DHT22;6857;53.484;10.216;2022-07-15T12:32:00;20.60;99.90
13572;DHT22;6857;53.484;10.216;2022-07-15T12:34:55;20.20;99.90
13572;DHT22;6857;53.484;10.216;2022-07-15T12:37:27;19.80;99.90
13572;DHT22;6857;53.484;10.216;2022-07-15T12:40:10;19.60;99.90
13572;DHT22;6857;53.484;10.216;2022-07-15T12:42:50;19.50;99.90
13572;DHT22;6857;53.484;10.216;2022-07-15T12:45:18;19.60;99.90
13572;DHT22;6857;53.484;10.216;2022-07-15T12:48:08;19.50;99.90
13572;DHT22;6857;53.484;10.216;2022-07-15T12:53:15;19.40;99.90
13572;DHT22;6857;53.484;10.216;2022-07-15T12:55:45;19.30;99.90
13572;DHT22;6857;53.484;10.216;2022-07-15T12:58:12;19.30;99.90
13572;DHT22;6857;53.484;10.216;2022-07-15T13:00:39;19.30;99.90
13572;DHT22;6857;53.484;10.216;2022-07-15T13:03:06;19.30;99.90
13572;DHT22;6857;53.484;10.216;2022-07-15T13:07:59;19.20;99.90
13572;DHT22;6857;53.484;10.216;2022-07-15T13:10:27;19.20;99.90
13572;DHT22;6857;53.484;10.216;2022-07-15T13:12:53;19.20;99.90
13572;DHT22;6857;53.484;10.216;2022-07-15T13:15:19;19.10;99.90
13572;DHT22;6857;53.484;10.216;2022-07-15T13:17:45;19.40;99.90
13572;DHT22;6857;53.484;10.216;2022-07-15T13:20:10;19.90;99.90
13572;DHT22;6857;53.484;10.216;2022-07-15T13:22:38;20.60;99.90
13572;DHT22;6857;53.484;10.216;2022-07-15T13:25:04;21.20;99.90
13572;DHT22;6857;53.484;10.216;2022-07-15T13:27:30;21.60;99.90
13572;DHT22;6857;53.484;10.216;2022-07-15T13:29:55;22.00;99.90
13572;DHT22;6857;53.484;10.216;2022-07-15T13:32:21;22.10;99.90
13572;DHT22;6857;53.484;10.216;2022-07-15T13:34:46;22.20;99.90
13572;DHT22;6857;53.484;10.216;2022-07-15T13:37:12;22.20;99.90
13572;DHT22;6857;53.484;10.216;2022-07-15T13:39:37;22.30;99.90
13572;DHT22;6857;53.484;10.216;2022-07-15T13:42:03;22.00;99.90
13572;DHT22;6857;53.484;10.216;2022-07-15T13:44:29;21.30;99.90
13572;DHT22;6857;53.484;10.216;2022-07-15T13:46:54;20.60;99.90
13572;DHT22;6857;53.484;10.216;2022-07-15T13:49:20;20.10;99.90
13572;DHT22;6857;53.484;10.216;2022-07-15T13:52:05;19.80;99.90
13572;DHT22;6857;53.484;10.216;2022-07-15T13:54:31;19.50;99.90
13572;DHT22;6857;53.484;10.216;2022-07-15T13:56:57;19.50;99.90
13572;DHT22;6857;53.484;10.216;2022-07-15T13:59:24;19.50;99.90
13572;DHT22;6857;53.484;10.216;2022-07-15T14:01:49;19.50;99.90
13572;DHT22;6857;53.484;10.216;2022-07-15T14:04:16;19.80;99.90
13572;DHT22;6857;53.484;10.216;2022-07-15T14:06:42;20.30;99.90
13572;DHT22;6857;53.484;10.216;2022-07-15T14:09:07;21.10;99.90
13572;DHT22;6857;53.484;10.216;2022-07-15T14:11:34;21.80;99.90
13572;DHT22;6857;53.484;10.216;2022-07-15T14:14:00;21.60;99.90
13572;DHT22;6857;53.484;10.216;2022-07-15T14:16:26;21.40;99.90
13572;DHT22;6857;53.484;10.216;2022-07-15T14:18:51;21.90;99.90
13572;DHT22;6857;53.484;10.216;2022-07-15T14:21:18;22.10;99.90
13572;DHT22;6857;53.484;10.216;2022-07-15T14:23:45;22.10;99.90
13572;DHT22;6857;53.484;10.216;2022-07-15T14:26:11;22.00;99.90
13572;DHT22;6857;53.484;10.216;2022-07-15T14:28:38;22.40;99.20
13572;DHT22;6857;53.484;10.216;2022-07-15T14:31:05;22.70;97.90
13572;DHT22;6857;53.484;10.216;2022-07-15T14:33:31;22.80;97.20
13572;DHT22;6857;53.484;10.216;2022-07-15T14:35:57;23.10;95.90
13572;DHT22;6857;53.484;10.216;2022-07-15T14:38:23;23.00;95.10
13572;DHT22;6857;53.484;10.216;2022-07-15T14:40:48;22.60;95.80
13572;DHT22;6857;53.484;10.216;2022-07-15T14:43:14;22.60;95.40
13572;DHT22;6857;53.484;10.216;2022-07-15T14:45:39;22.70;93.70
13572;DHT22;6857;53.484;10.216;2022-07-15T14:48:05;22.60;93.60
13572;DHT22;6857;53.484;10.216;2022-07-15T14:50:31;22.40;93.40
13572;DHT22;6857;53.484;10.216;2022-07-15T14:53:01;22.30;93.90
13572;DHT22;6857;53.484;10.216;2022-07-15T14:55:26;22.50;93.00
13572;DHT22;6857;53.484;10.216;2022-07-15T14:57:52;22.80;92.40
13572;DHT22;6857;53.484;10.216;2022-07-15T15:00:18;23.10;91.80
13572;DHT22;6857;53.484;10.216;2022-07-15T15:02:44;23.20;91.50
13572;DHT22;6857;53.484;10.216;2022-07-15T15:05:09;23.10;91.60
13572;DHT22;6857;53.484;10.216;2022-07-15T15:07:35;23.30;90.60
13572;DHT22;6857;53.484;10.216;2022-07-15T15:10:01;23.60;90.20
13572;DHT22;6857;53.484;10.216;2022-07-15T15:12:26;23.40;89.40
13572;DHT22;6857;53.484;10.216;2022-07-15T15:14:52;23.20;90.40
13572;DHT22;6857;53.484;10.216;2022-07-15T15:17:17;22.70;91.30
13572;DHT22;6857;53.484;10.216;2022-07-15T15:19:43;22.20;91.80
13572;DHT22;6857;53.484;10.216;2022-07-15T15:22:09;22.40;92.10
13572;DHT22;6857;53.484;10.216;2022-07-15T15:24:35;22.90;91.50
13572;DHT22;6857;53.484;10.216;2022-07-15T15:27:02;23.10;91.40
13572;DHT22;6857;53.484;10.216;2022-07-15T15:29:30;23.10;91.30
13572;DHT22;6857;53.484;10.216;2022-07-15T15:31:56;23.00;91.30
13572;DHT22;6857;53.484;10.216;2022-07-15T15:34:22;22.80;91.20
13572;DHT22;6857;53.484;10.216;2022-07-15T15:36:47;22.60;91.70
13572;DHT22;6857;53.484;10.216;2022-07-15T15:39:14;22.80;91.70
13572;DHT22;6857;53.484;10.216;2022-07-15T15:41:40;22.80;91.40
13572;DHT22;6857;53.484;10.216;2022-07-15T15:44:05;22.50;91.40
13572;DHT22;6857;53.484;10.216;2022-07-15T15:46:31;22.50;91.90
13572;DHT22;6857;53.484;10.216;2022-07-15T15:48:57;23.00;91.30
13572;DHT22;6857;53.484;10.216;2022-07-15T15:51:23;23.80;90.20
13572;DHT22;6857;53.484;10.216;2022-07-15T15:53:48;24.00;89.20
13572;DHT22;6857;53.484;10.216;2022-07-15T15:56:14;24.40;87.70
13572;DHT22;6857;53.484;10.216;2022-07-15T15:58:40;24.70;85.90
13572;DHT22;6857;53.484;10.216;2022-07-15T16:01:06;23.70;87.80
13572;DHT22;6857;53.484;10.216;2022-07-15T16:03:31;22.80;90.40
13572;DHT22;6857;53.484;10.216;2022-07-15T16:05:57;22.30;90.80
13572;DHT22;6857;53.484;10.216;2022-07-15T16:08:22;21.60;91.70
13572;DHT22;6857;53.484;10.216;2022-07-15T16:10:48;21.20;92.90
13572;DHT22;6857;53.484;10.216;2022-07-15T16:13:14;20.90;92.50
13572;DHT22;6857;53.484;10.216;2022-07-15T16:15:39;20.80;92.30
13572;DHT22;6857;53.484;10.216;2022-07-15T16:18:05;20.70;93.20